Time;durP1;ratioP1;P1;durP2;ratioP2;P2;SDS_P1;SDS_P2;PMS_P1;PMS_P2;Temp;Humidity;BMP_temperature;BMP_pressure;BME280_temperature;BME280_humidity;BME280_pressure;Samples;Min_cycle;Max_cycle;Signal;HPM_P1;HPM_P2
2023/09/30 00:00:19;;;;;;;1.20;0.80;;;;;;;-143.84;38.83;45071.91;5092500;28;20508;-58
2023/09/30 00:02:47;;;;;;;3.00;0.67;;;;;;;-143.84;38.71;45066.22;5092271;28;20940;-58
2023/09/30 00:05:15;;;;;;;0.90;0.60;;;;;;;-143.84;39.05;45085.25;5092465;28;20444;-58
2023/09/30 00:07:42;;;;;;;0.90;0.60;;;;;;;-143.84;38.99;45098.56;5092324;28;20431;-58
2023/09/30 00:10:10;;;;;;;0.90;0.60;;;;;;;-143.84;38.98;45062.41;5092583;28;21069;-58
2023/09/30 00:12:37;;;;;;;1.27;0.77;;;;;;;-143.84;38.95;45060.50;5091489;28;20517;-58
2023/09/30 00:15:05;;;;;;;1.00;0.47;;;;;;;-143.84;39.12;45050.97;5091122;28;20440;-58
2023/09/30 00:17:32;;;;;;;0.90;0.70;;;;;;;-143.84;38.90;45049.06;5091066;28;20876;-58
2023/09/30 00:20:01;;;;;;;0.87;0.53;;;;;;;-143.84;39.18;45056.69;5090949;28;20487;-58
2023/09/30 00:22:31;;;;;;;0.90;0.70;;;;;;;-143.84;39.15;45047.16;5091474;28;20526;-58
2023/09/30 00:24:58;;;;;;;2.20;1.33;;;;;;;-143.84;39.37;45079.53;5091142;28;20929;-58
2023/09/30 00:27:25;;;;;;;0.90;0.70;;;;;;;-143.84;39.25;45066.22;5091470;28;20435;-58
2023/09/30 00:29:52;;;;;;;0.90;0.50;;;;;;;-143.84;39.34;45068.13;5091258;28;20585;-58
2023/09/30 00:32:19;;;;;;;1.00;0.73;;;;;;;-143.84;39.41;45064.31;5091236;28;20432;-58
2023/09/30 00:34:46;;;;;;;0.90;0.70;;;;;;;-143.84;39.36;45089.06;5091555;28;20521;-58
2023/09/30 00:37:15;;;;;;;1.13;1.00;;;;;;;-143.84;39.65;45081.44;5091718;28;20858;-58
2023/09/30 00:39:42;;;;;;;0.97;0.77;;;;;;;-143.84;39.57;45081.44;5091752;28;20461;-58
2023/09/30 00:42:09;;;;;;;0.90;0.60;;;;;;;-143.84;39.56;45047.16;5092103;28;20440;-58
2023/09/30 00:44:36;;;;;;;0.90;0.60;;;;;;;-143.84;39.65;45056.69;5092360;28;20497;-58
2023/09/30 00:47:03;;;;;;;1.37;0.97;;;;;;;-143.84;39.66;45064.31;5091922;28;20528;-58
2023/09/30 00:49:30;;;;;;;0.90;0.63;;;;;;;-143.84;39.66;45031.94;5091824;28;20560;-58
2023/09/30 00:51:58;;;;;;;1.77;1.07;;;;;;;-143.84;39.96;45056.69;5091452;28;20444;-58
2023/09/30 00:54:27;;;;;;;0.80;0.40;;;;;;;-143.84;39.89;45075.72;5091613;28;20444;-58
2023/09/30 00:56:57;;;;;;;1.10;0.70;;;;;;;-143.84;40.04;45066.22;5091824;28;20444;-58
2023/09/30 00:59:26;;;;;;;0.90;0.70;;;;;;;-143.84;40.24;45090.97;5091727;28;20435;-58
2023/09/30 01:01:55;;;;;;;1.37;0.93;;;;;;;-143.84;40.37;45077.63;5091679;28;20439;-58
2023/09/30 01:04:23;;;;;;;1.10;0.83;;;;;;;-143.84;40.54;45056.69;5091299;28;20922;-58
2023/09/30 01:06:50;;;;;;;1.00;0.80;;;;;;;-143.84;40.54;45087.16;5091061;28;20549;-58
2023/09/30 01:09:17;;;;;;;1.83;1.70;;;;;;;-143.84;40.51;45073.81;5091037;28;20545;-58
2023/09/30 01:11:45;;;;;;;1.13;1.03;;;;;;;-143.84;40.92;45058.59;5091313;28;20435;-58
2023/09/30 01:14:26;;;;;;;1.73;0.90;;;;;;;-143.84;40.62;45090.97;5090961;28;20447;-58
2023/09/30 01:16:53;;;;;;;0.80;0.50;;;;;;;-143.84;40.86;45096.66;5091419;28;20933;-58
2023/09/30 01:19:20;;;;;;;1.23;1.13;;;;;;;-143.84;40.83;45056.69;5091238;28;20515;-58
2023/09/30 01:21:49;;;;;;;1.50;0.80;;;;;;;-143.84;40.75;45056.69;5091284;28;20428;-58
2023/09/30 01:24:16;;;;;;;0.80;0.50;;;;;;;-143.84;40.96;45085.25;5091077;28;20440;-58
2023/09/30 01:26:43;;;;;;;1.27;0.67;;;;;;;-143.84;41.46;45062.41;5090741;28;20468;-58
2023/09/30 01:29:11;;;;;;;1.00;0.63;;;;;;;-143.84;41.40;45073.81;5090501;28;20487;-58
2023/09/30 01:31:39;;;;;;;1.10;0.50;;;;;;;-143.84;41.43;45068.13;5090635;28;20436;-58
2023/09/30 01:34:07;;;;;;;0.90;0.73;;;;;;;-143.84;41.36;45079.53;5090916;28;20818;-58
2023/09/30 01:36:34;;;;;;;0.80;0.50;;;;;;;-143.84;41.81;45081.44;5090948;28;20522;-58
2023/09/30 01:39:03;;;;;;;1.20;0.60;;;;;;;-143.84;41.82;45079.53;5090840;28;20440;-58
2023/09/30 01:41:30;;;;;;;3.30;0.93;;;;;;;-143.84;41.82;45075.72;5090737;28;20456;-58
2023/09/30 01:43:57;;;;;;;1.07;0.93;;;;;;;-143.84;42.44;45073.81;5090983;28;20436;-58
2023/09/30 01:46:24;;;;;;;2.17;1.13;;;;;;;-143.84;42.51;45068.13;5090958;28;20436;-58
2023/09/30 01:48:51;;;;;;;1.10;0.70;;;;;;;-143.84;42.65;45070.00;5090844;28;20487;-58
2023/09/30 01:51:19;;;;;;;0.90;0.53;;;;;;;-143.84;42.91;45113.81;5090883;28;20474;-58
2023/09/30 01:53:46;;;;;;;1.23;1.13;;;;;;;-143.84;42.95;45075.72;5090970;28;20447;-58
2023/09/30 01:56:14;;;;;;;1.00;0.67;;;;;;;-143.84;43.07;45064.31;5090499;28;20479;-58
2023/09/30 01:58:41;;;;;;;0.90;0.53;;;;;;;-143.84;43.54;45066.22;5090757;28;20482;-58
2023/09/30 02:01:09;;;;;;;0.90;0.73;;;;;;;-143.84;43.82;45098.56;5090353;28;20451;-58
2023/09/30 02:03:36;;;;;;;0.90;0.63;;;;;;;-143.84;43.87;45081.44;5090583;28;20878;-58
2023/09/30 02:06:03;;;;;;;0.87;0.60;;;;;;;-143.84;44.38;45073.81;5090537;28;20511;-58
2023/09/30 02:08:30;;;;;;;1.53;0.70;;;;;;;-143.84;44.16;45064.31;5090629;28;20444;-58
2023/09/30 02:10:57;;;;;;;1.10;0.90;;;;;;;-143.84;44.44;45068.13;5090179;28;20459;-58
2023/09/30 02:13:27;;;;;;;0.80;0.50;;;;;;;-143.84;44.65;45079.53;5090110;28;20854;-58
2023/09/30 02:15:55;;;;;;;0.90;0.70;;;;;;;-143.84;44.95;45075.72;5090189;28;20948;-58
2023/09/30 02:18:23;;;;;;;0.90;0.67;;;;;;;-143.84;44.82;45087.16;5088965;28;20477;-58
2023/09/30 02:20:50;;;;;;;0.90;0.53;;;;;;;-143.84;44.92;45085.25;5089949;28;20925;-58
2023/09/30 02:23:18;;;;;;;0.93;0.57;;;;;;;-143.84;45.27;45068.13;5090171;28;20467;-58
2023/09/30 02:25:46;;;;;;;1.10;0.70;;;;;;;-143.84;45.27;45083.34;5089987;28;20944;-58
2023/09/30 02:28:13;;;;;;;1.30;1.13;;;;;;;-143.84;45.51;45062.41;5089779;28;20460;-58
2023/09/30 02:30:41;;;;;;;1.33;0.93;;;;;;;-143.84;45.68;45058.59;5090103;28;20622;-58
2023/09/30 02:33:09;;;;;;;1.27;1.17;;;;;;;-143.84;45.81;45077.63;5089796;28;20460;-58
2023/09/30 02:35:38;;;;;;;1.30;0.70;;;;;;;-143.84;45.96;45083.34;5089780;28;20846;-58
2023/09/30 02:38:06;;;;;;;1.00;0.90;;;;;;;-143.84;45.93;45081.44;5089706;28;20440;-58
2023/09/30 02:40:33;;;;;;;0.93;0.80;;;;;;;-143.84;45.89;45071.91;5089454;28;20459;-58
2023/09/30 02:43:00;;;;;;;1.00;0.60;;;;;;;-143.84;45.92;45092.88;5089898;28;20833;-58
2023/09/30 02:45:27;;;;;;;0.80;0.50;;;;;;;-143.84;45.75;45075.72;5089699;28;20934;-58
2023/09/30 02:47:56;;;;;;;1.00;0.80;;;;;;;-143.84;45.99;45079.53;5089786;28;20505;-58
2023/09/30 02:50:23;;;;;;;2.43;1.27;;;;;;;-143.84;46.01;45071.91;5089397;28;20475;-58
2023/09/30 02:52:50;;;;;;;1.17;0.57;;;;;;;-143.84;46.18;45089.06;5089177;28;20496;-58
2023/09/30 02:55:18;;;;;;;1.00;0.77;;;;;;;-143.84;46.48;45090.97;5089184;28;20446;-58
2023/09/30 02:57:46;;;;;;;1.00;0.67;;;;;;;-143.84;46.49;45075.72;5089564;28;20440;-58
2023/09/30 03:00:23;;;;;;;1.60;1.23;;;;;;;-143.84;46.47;45094.78;5089026;28;20471;-58
2023/09/30 03:02:52;;;;;;;1.00;0.70;;;;;;;-143.84;46.58;45115.72;5089139;28;20459;-58
2023/09/30 03:05:20;;;;;;;0.90;0.67;;;;;;;-143.84;46.46;45077.63;5089101;28;20448;-58
2023/09/30 03:07:50;;;;;;;1.00;0.73;;;;;;;-143.84;46.41;45087.16;5089100;28;20773;-58
2023/09/30 03:10:20;;;;;;;0.93;0.70;;;;;;;-143.84;46.35;45092.88;5088890;28;20489;-58
2023/09/30 03:12:48;;;;;;;1.40;1.10;;;;;;;-143.84;46.69;45090.97;5089519;28;20865;-58
2023/09/30 03:15:16;;;;;;;1.20;0.87;;;;;;;-143.84;46.73;45066.22;5089492;28;20438;-58
2023/09/30 03:17:43;;;;;;;0.87;0.57;;;;;;;-143.84;46.58;45066.22;5089256;28;20450;-58
2023/09/30 03:20:14;;;;;;;0.80;0.50;;;;;;;-143.84;46.60;45104.28;5089304;28;20540;-58
2023/09/30 03:22:43;;;;;;;7.90;1.40;;;;;;;-143.84;46.74;45098.56;5089493;28;20547;-58
2023/09/30 03:25:12;;;;;;;1.57;0.83;;;;;;;-143.84;46.83;45075.72;5089442;28;20444;-58
2023/09/30 03:27:39;;;;;;;1.07;0.70;;;;;;;-143.84;47.04;45092.88;5089275;28;20440;-58
2023/09/30 03:30:11;;;;;;;0.90;0.50;;;;;;;-143.84;47.32;45085.25;5093078;28;20479;-58
2023/09/30 03:32:39;;;;;;;1.03;0.70;;;;;;;-143.84;47.26;45075.72;5093619;28;20444;-58
2023/09/30 03:35:07;;;;;;;3.97;1.10;;;;;;;-143.84;47.34;45079.53;5093291;28;20467;-58
2023/09/30 03:37:34;;;;;;;1.77;1.33;;;;;;;-143.84;47.50;45079.53;5093579;28;20475;-58
2023/09/30 03:40:11;;;;;;;1.00;0.90;;;;;;;-143.84;47.29;45094.78;5093472;28;20870;-58
2023/09/30 03:42:40;;;;;;;0.93;0.80;;;;;;;-143.84;47.60;45108.09;5093105;28;20987;-58
2023/09/30 03:45:09;;;;;;;0.90;0.70;;;;;;;-143.84;47.97;45090.97;5093587;28;20438;-58
2023/09/30 03:47:36;;;;;;;1.20;0.60;;;;;;;-143.84;48.13;45087.16;5093374;28;20473;-58
2023/09/30 03:50:04;;;;;;;3.73;0.77;;;;;;;-143.84;48.34;45096.66;5093486;28;20475;-58
2023/09/30 03:52:32;;;;;;;1.43;1.23;;;;;;;-143.84;48.57;45102.38;5093098;28;21011;-58
2023/09/30 03:55:03;;;;;;;1.07;0.80;;;;;;;-143.84;49.00;45098.56;5093135;28;20443;-58
2023/09/30 03:57:33;;;;;;;1.73;1.13;;;;;;;-143.84;48.65;45100.47;5093044;28;20478;-58
2023/09/30 04:00:01;;;;;;;0.90;0.70;;;;;;;-143.84;48.67;45110.00;5093259;28;20444;-58
2023/09/30 04:02:28;;;;;;;0.93;0.83;;;;;;;-143.84;48.78;45077.63;5092886;28;20486;-58
2023/09/30 04:04:57;;;;;;;1.07;0.97;;;;;;;-143.84;49.21;45100.47;5093083;28;20792;-58
2023/09/30 04:07:27;;;;;;;1.27;1.10;;;;;;;-143.84;49.22;45104.28;5092881;28;20486;-58
2023/09/30 04:09:55;;;;;;;1.07;0.97;;;;;;;-143.84;49.11;45089.06;5088643;28;20480;-58
2023/09/30 04:12:23;;;;;;;2.17;1.23;;;;;;;-143.84;49.18;45070.00;5092797;28;20432;-57
2023/09/30 04:14:52;;;;;;;1.07;0.80;;;;;;;-143.84;49.51;45068.13;5092806;28;20835;-58
2023/09/30 04:17:19;;;;;;;1.20;1.00;;;;;;;-143.84;49.57;45094.78;5092498;28;20498;-58
2023/09/30 04:19:50;;;;;;;0.90;0.60;;;;;;;-143.84;49.47;45070.00;5092176;28;20551;-58
2023/09/30 04:22:18;;;;;;;1.07;0.90;;;;;;;-143.84;49.01;45087.16;5092065;28;20431;-58
2023/09/30 04:24:45;;;;;;;0.90;0.50;;;;;;;-143.84;49.07;45108.09;5092070;28;20835;-58
2023/09/30 04:27:13;;;;;;;2.20;0.80;;;;;;;-143.84;49.29;45079.53;5092049;28;20440;-58
2023/09/30 04:29:41;;;;;;;0.97;0.80;;;;;;;-143.84;49.02;45102.38;5091997;28;20486;-58
2023/09/30 04:32:09;;;;;;;0.90;0.50;;;;;;;-143.84;48.83;45110.00;5092038;28;20450;-58
2023/09/30 04:34:36;;;;;;;0.80;0.50;;;;;;;-143.84;48.38;45071.91;5092348;28;20433;-58
2023/09/30 04:37:04;;;;;;;0.80;0.53;;;;;;;-143.84;48.58;45083.34;5092669;28;20934;-58
2023/09/30 04:39:35;;;;;;;1.20;0.80;;;;;;;-143.84;48.38;45073.81;5091847;28;20454;-58
2023/09/30 04:42:03;;;;;;;0.90;0.70;;;;;;;-143.84;48.11;45081.44;5092045;28;20439;-58
2023/09/30 04:44:31;;;;;;;1.17;0.63;;;;;;;-143.84;48.10;45089.06;5092420;28;20530;-58
2023/09/30 04:46:58;;;;;;;1.40;0.93;;;;;;;-143.84;47.74;45096.66;5091354;28;20501;-58
2023/09/30 04:49:27;;;;;;;0.90;0.70;;;;;;;-143.84;47.83;45071.91;5090958;28;20943;-58
2023/09/30 04:51:54;;;;;;;1.23;0.83;;;;;;;-143.84;47.72;45073.81;5091116;28;20455;-58
2023/09/30 04:54:22;;;;;;;1.10;0.63;;;;;;;-143.84;47.48;45073.81;5090569;28;20467;-58
2023/09/30 04:56:51;;;;;;;0.80;0.40;;;;;;;-143.84;47.24;45070.00;5087515;28;20435;-58
2023/09/30 04:59:18;;;;;;;1.57;1.23;;;;;;;-143.84;47.60;45077.63;5090653;28;20501;-58
2023/09/30 05:01:45;;;;;;;1.30;1.17;;;;;;;-143.84;47.15;45064.31;5098503;28;20439;-58
2023/09/30 05:04:12;;;;;;;1.30;1.20;;;;;;;-143.84;46.89;45060.50;5099416;28;20884;-58
2023/09/30 05:06:41;;;;;;;0.90;0.60;;;;;;;-143.84;47.12;45070.00;5099788;28;20450;-58
2023/09/30 05:09:09;;;;;;;1.00;0.80;;;;;;;-143.84;46.91;45030.03;5097780;28;20510;-58
2023/09/30 05:11:37;;;;;;;1.10;1.00;;;;;;;-143.84;46.29;45134.75;5098945;28;20507;-58
2023/09/30 05:14:05;;;;;;;1.33;1.13;;;;;;;-143.84;45.92;45056.69;5097013;28;20473;-58
2023/09/30 05:16:32;;;;;;;3.27;1.67;;;;;;;-143.84;45.75;45066.22;5100850;28;20515;-58
2023/09/30 05:18:59;;;;;;;1.10;1.00;;;;;;;-143.84;45.88;45083.34;5099461;28;20908;-58
2023/09/30 05:21:26;;;;;;;1.93;1.20;;;;;;;-143.84;45.62;45068.13;5099583;28;21001;-58
2023/09/30 05:23:56;;;;;;;1.83;0.83;;;;;;;-143.84;45.35;45052.88;5095115;28;20482;-58
2023/09/30 05:26:23;;;;;;;0.90;0.63;;;;;;;-143.84;45.06;45077.63;5095773;28;20448;-58
2023/09/30 05:28:50;;;;;;;1.00;0.80;;;;;;;-143.84;44.99;45045.25;5098008;28;20476;-58
2023/09/30 05:31:17;;;;;;;1.13;1.03;;;;;;;-143.84;44.72;45033.84;5101872;28;20476;-58
2023/09/30 05:33:44;;;;;;;1.30;1.10;;;;;;;-143.84;44.36;45052.88;5101197;28;20443;-58
2023/09/30 05:36:13;;;;;;;1.83;1.00;;;;;;;-143.84;44.59;45066.22;5097267;28;20443;-57
2023/09/30 05:38:40;;;;;;;1.80;1.70;;;;;;;-143.84;44.87;45058.59;5099415;28;20527;-58
2023/09/30 05:41:09;;;;;;;1.40;0.70;;;;;;;-143.84;44.26;45049.06;5102057;28;20471;-58
2023/09/30 05:43:36;;;;;;;0.90;0.67;;;;;;;-143.84;43.97;45056.69;5097898;28;20451;-58
2023/09/30 05:46:04;;;;;;;1.20;1.10;;;;;;;-143.84;44.58;45045.25;5100095;28;20501;-58
2023/09/30 05:48:31;;;;;;;0.90;0.60;;;;;;;-143.84;44.00;45047.16;5101647;28;20482;-58
2023/09/30 05:50:58;;;;;;;1.03;0.93;;;;;;;-143.84;43.90;45010.97;5099084;28;20478;-58
2023/09/30 05:53:27;;;;;;;1.00;0.80;;;;;;;-143.84;43.63;45037.66;5097845;28;20559;-58
2023/09/30 05:55:54;;;;;;;1.07;0.97;;;;;;;-143.84;43.53;45039.53;5089718;28;20827;-58
2023/09/30 05:58:23;;;;;;;1.33;1.03;;;;;;;-143.84;43.28;45041.44;5095174;28;20447;-58
2023/09/30 06:00:50;;;;;;;1.97;1.60;;;;;;;-143.84;43.35;45033.84;5097451;28;20796;-58
2023/09/30 06:03:17;;;;;;;1.70;1.30;;;;;;;-143.84;43.28;45014.78;5101745;28;21219;-58
2023/09/30 06:05:44;;;;;;;1.47;1.10;;;;;;;-143.84;42.91;45049.06;5097509;28;20443;-58
2023/09/30 06:08:13;;;;;;;1.10;0.80;;;;;;;-143.84;42.74;45043.34;5093659;28;20474;-58
2023/09/30 06:10:43;;;;;;;1.20;1.10;;;;;;;-143.84;43.08;45022.41;5097920;28;21020;-58
2023/09/30 06:13:11;;;;;;;1.13;0.97;;;;;;;-143.84;42.71;45012.88;5094109;28;20563;-58
2023/09/30 06:15:41;;;;;;;2.20;1.30;;;;;;;-143.84;42.68;45039.53;5096760;28;21278;-58
2023/09/30 06:18:12;;;;;;;1.17;1.07;;;;;;;-143.84;42.61;45018.59;5094186;28;20483;-59
2023/09/30 06:20:39;;;;;;;1.93;1.70;;;;;;;-143.84;42.33;45049.06;5093576;28;20454;-58
2023/09/30 06:23:06;;;;;;;1.20;0.93;;;;;;;-143.84;42.82;45026.22;5097037;28;20531;-58
2023/09/30 06:25:34;;;;;;;1.17;1.00;;;;;;;-143.84;42.49;45037.66;5096320;28;20454;-58
2023/09/30 06:28:01;;;;;;;2.07;1.40;;;;;;;-143.84;41.84;44997.66;5099114;28;20455;-58
2023/09/30 06:30:30;;;;;;;1.90;1.20;;;;;;;-143.84;41.88;45039.53;5100351;28;20479;-58
2023/09/30 06:32:59;;;;;;;1.30;1.20;;;;;;;-143.84;41.53;45031.94;5097559;28;20478;-58
2023/09/30 06:35:27;;;;;;;1.10;1.00;;;;;;;-143.84;41.53;45024.31;5094723;28;20459;-58
2023/09/30 06:37:54;;;;;;;2.00;1.90;;;;;;;-143.84;41.25;45005.28;5100780;28;20526;-58
2023/09/30 06:40:21;;;;;;;1.00;0.77;;;;;;;-143.84;40.90;45016.69;5101001;28;20492;-58
2023/09/30 06:42:49;;;;;;;0.93;0.67;;;;;;;-143.84;40.56;45028.13;5098256;28;20573;-58
2023/09/30 06:45:17;;;;;;;1.67;1.57;;;;;;;-143.84;40.70;44999.56;5097975;28;20469;-58
2023/09/30 06:47:45;;;;;;;1.20;1.10;;;;;;;-143.84;40.54;45012.88;5101727;28;20455;-58
2023/09/30 06:50:16;;;;;;;1.10;1.00;;;;;;;-143.84;40.14;44999.56;5093761;28;20475;-58
2023/09/30 06:52:45;;;;;;;1.30;0.80;;;;;;;-143.84;39.46;45037.66;5095760;28;20462;-58
2023/09/30 06:55:16;;;;;;;1.40;1.10;;;;;;;-143.84;39.63;45007.19;5097278;28;20533;-58
2023/09/30 06:57:43;;;;;;;1.30;1.10;;;;;;;-143.84;39.08;45056.69;5088241;28;20451;-58
2023/09/30 07:00:12;;;;;;;5.17;1.80;;;;;;;-143.84;39.15;45005.28;5100825;28;20446;-58
2023/09/30 07:02:40;;;;;;;1.33;1.23;;;;;;;-143.84;39.09;45030.03;5089701;28;20462;-58
2023/09/30 07:05:09;;;;;;;0.90;0.73;;;;;;;-143.84;38.89;45007.19;5100746;28;20447;-58
2023/09/30 07:07:38;;;;;;;1.03;0.70;;;;;;;-143.84;38.94;45024.31;5099168;28;20844;-58
2023/09/30 07:10:06;;;;;;;1.33;1.23;;;;;;;-143.84;38.72;45003.38;5097985;28;20513;-58
2023/09/30 07:12:35;;;;;;;1.27;1.07;;;;;;;-143.84;37.61;45001.47;5095471;28;20458;-58
2023/09/30 07:15:02;;;;;;;2.93;2.73;;;;;;;-143.84;37.61;44976.72;5096202;28;20443;-58
2023/09/30 07:17:30;;;;;;;1.60;1.30;;;;;;;-143.84;37.44;45005.28;5097510;28;20538;-58
2023/09/30 07:19:57;;;;;;;1.17;1.03;;;;;;;-143.84;37.15;44974.81;5097201;28;20481;-58
2023/09/30 07:22:24;;;;;;;1.00;0.90;;;;;;;-143.84;36.87;45012.88;5098388;28;20467;-58
2023/09/30 07:24:53;;;;;;;1.00;0.80;;;;;;;-143.84;36.73;44990.03;5096029;28;20469;-59
2023/09/30 07:27:20;;;;;;;1.70;1.60;;;;;;;-143.84;36.33;44988.13;5092555;28;20854;-58
2023/09/30 07:29:48;;;;;;;1.10;0.90;;;;;;;-143.84;35.88;44988.13;5089020;28;20493;-58
2023/09/30 07:32:15;;;;;;;0.90;0.63;;;;;;;-143.84;36.06;44969.09;5088939;28;20499;-59
2023/09/30 07:34:42;;;;;;;0.90;0.60;;;;;;;-143.84;36.26;44993.84;5088874;28;20509;-58
2023/09/30 07:37:09;;;;;;;1.40;1.10;;;;;;;-143.84;35.65;44963.38;5088600;28;20526;-59
2023/09/30 07:39:36;;;;;;;1.37;1.13;;;;;;;-143.84;35.17;44972.91;5090709;28;20436;-58
2023/09/30 07:42:05;;;;;;;1.53;1.10;;;;;;;-143.84;34.17;44976.72;5092859;28;20941;-59
2023/09/30 07:44:32;;;;;;;1.10;1.00;;;;;;;-143.84;34.34;44980.53;5092126;28;20443;-58
2023/09/30 07:47:00;;;;;;;1.30;0.87;;;;;;;-143.84;34.42;44967.19;5093151;28;20446;-59
2023/09/30 07:49:27;;;;;;;0.90;0.60;;;;;;;-143.84;34.82;44972.91;5092515;28;20447;-58
2023/09/30 07:51:54;;;;;;;2.10;1.23;;;;;;;-143.84;34.57;44951.97;5092153;28;20568;-59
2023/09/30 07:54:21;;;;;;;0.90;0.70;;;;;;;-143.84;34.83;45001.47;5088537;28;20480;-59
2023/09/30 07:56:49;;;;;;;1.00;0.83;;;;;;;-143.84;35.16;44967.19;5097181;28;20941;-59
2023/09/30 07:59:17;;;;;;;1.90;1.27;;;;;;;-143.84;34.63;44957.66;5090597;28;20939;-58
2023/09/30 08:01:45;;;;;;;1.10;1.00;;;;;;;-143.84;34.50;44967.19;5096387;28;20482;-58
2023/09/30 08:04:12;;;;;;;1.10;0.90;;;;;;;-143.84;33.94;44955.75;5095706;28;20581;-59
2023/09/30 08:06:39;;;;;;;2.90;1.53;;;;;;;-143.84;33.72;44951.97;5087891;28;20471;-58
2023/09/30 08:09:09;;;;;;;1.37;1.00;;;;;;;-143.84;33.39;44961.47;5096728;28;20446;-58
2023/09/30 08:11:37;;;;;;;1.23;1.13;;;;;;;-143.84;33.57;44934.81;5092688;28;20566;-59
2023/09/30 08:14:06;;;;;;;0.90;0.70;;;;;;;-143.84;33.30;44959.56;5094371;28;20443;-59
2023/09/30 08:16:35;;;;;;;1.17;0.93;;;;;;;-143.84;33.66;44957.66;5097693;28;20447;-58
2023/09/30 08:19:02;;;;;;;1.93;1.27;;;;;;;-143.84;32.80;44948.16;5102441;28;20579;-58
2023/09/30 08:21:30;;;;;;;2.87;1.10;;;;;;;-143.84;32.35;44957.66;5098957;28;20520;-58
2023/09/30 08:23:58;;;;;;;1.10;1.00;;;;;;;-143.84;31.97;44982.41;5094444;28;20972;-58
2023/09/30 08:26:25;;;;;;;1.10;0.80;;;;;;;-143.84;32.10;44953.88;5093950;28;20945;-59
2023/09/30 08:28:52;;;;;;;0.90;0.70;;;;;;;-143.84;32.34;44934.81;5095396;28;20825;-58
2023/09/30 08:31:21;;;;;;;1.17;0.90;;;;;;;-143.84;32.38;44951.97;5096148;28;20484;-58
2023/09/30 08:33:50;;;;;;;1.63;1.43;;;;;;;-143.84;32.96;44959.56;5094096;28;20972;-58
2023/09/30 08:36:17;;;;;;;1.57;1.30;;;;;;;-143.84;32.71;44911.97;5089226;28;20452;-58
2023/09/30 08:38:44;;;;;;;1.37;1.10;;;;;;;-143.84;32.26;44931.00;5099176;28;20493;-58
2023/09/30 08:41:11;;;;;;;1.10;0.80;;;;;;;-143.84;32.69;44940.53;5097018;28;20439;-58
2023/09/30 08:43:40;;;;;;;1.47;1.33;;;;;;;-143.84;31.63;44906.25;5095196;28;20529;-58
2023/09/30 08:46:08;;;;;;;1.30;1.13;;;;;;;-143.84;31.91;44959.56;5092582;28;20443;-58
2023/09/30 08:48:35;;;;;;;1.27;1.03;;;;;;;-143.84;32.55;44944.34;5097068;28;20857;-58
2023/09/30 08:51:04;;;;;;;1.20;0.97;;;;;;;-143.84;32.51;44942.44;5097559;28;20895;-58
2023/09/30 08:53:31;;;;;;;1.40;1.20;;;;;;;-143.84;32.25;44910.06;5098393;28;20876;-58
2023/09/30 08:55:59;;;;;;;1.10;0.80;;;;;;;-143.84;31.63;44934.81;5099886;28;20489;-58
2023/09/30 08:58:28;;;;;;;1.10;0.93;;;;;;;-143.84;31.32;44911.97;5093269;28;20950;-59
2023/09/30 09:00:56;;;;;;;1.00;0.80;;;;;;;-143.84;31.99;44923.41;5095006;28;20432;-59
2023/09/30 09:03:23;;;;;;;2.40;1.13;;;;;;;-143.84;31.15;44931.00;5102071;28;20443;-59
2023/09/30 09:05:56;;;;;;;1.70;0.97;;;;;;;-143.84;31.69;44946.25;5086416;28;20512;-58
2023/09/30 09:08:26;;;;;;;1.00;0.70;;;;;;;-143.84;31.90;44976.72;5086699;28;20470;-58
2023/09/30 09:10:57;;;;;;;1.10;0.77;;;;;;;-143.84;31.72;44961.47;5084602;28;20484;-58
2023/09/30 09:13:25;;;;;;;1.40;1.30;;;;;;;-143.84;32.20;44963.38;5085140;28;20442;-58
2023/09/30 09:16:07;;;;;;;1.17;1.07;;;;;;;-143.84;32.26;44925.31;5084691;28;21375;-58
2023/09/30 09:18:35;;;;;;;0.90;0.80;;;;;;;-143.84;32.28;44931.00;5084741;28;20945;-58
2023/09/30 09:21:13;;;;;;;1.50;1.23;;;;;;;-143.84;32.23;44974.81;5084469;28;20455;-58
2023/09/30 09:23:43;;;;;;;1.00;0.80;;;;;;;-143.84;32.69;45014.78;5084684;28;20443;-60
2023/09/30 09:26:12;;;;;;;1.17;0.70;;;;;;;-143.84;33.02;44955.75;5084090;28;20455;-60
2023/09/30 09:28:39;;;;;;;1.57;1.13;;;;;;;-143.84;33.48;44965.28;5084253;28;20444;-60
2023/09/30 09:31:23;;;;;;;1.00;0.70;;;;;;;-143.84;33.17;44969.09;5083976;28;21019;-60
2023/09/30 09:33:51;;;;;;;1.37;0.97;;;;;;;-143.84;33.50;44950.06;5088224;28;20976;-60
2023/09/30 09:36:19;;;;;;;1.13;0.90;;;;;;;-143.84;33.96;44976.72;5085947;28;20505;-60
2023/09/30 09:38:52;;;;;;;1.20;1.00;;;;;;;-143.84;33.92;44946.25;5086595;28;20483;-60
2023/09/30 09:41:20;;;;;;;1.10;0.87;;;;;;;-143.84;33.19;44942.44;5086926;28;21242;-60
2023/09/30 09:43:50;;;;;;;1.60;0.90;;;;;;;-143.84;32.38;44969.09;5090107;28;20940;-60
2023/09/30 09:46:19;;;;;;;1.13;0.83;;;;;;;-143.84;32.86;44976.72;5089576;28;20539;-60
2023/09/30 09:48:47;;;;;;;0.97;0.77;;;;;;;-143.84;33.06;44969.09;5089818;28;20440;-60
2023/09/30 09:51:14;;;;;;;3.60;2.90;;;;;;;-143.84;33.51;44963.38;5089871;28;20539;-60
2023/09/30 09:53:43;;;;;;;1.50;1.40;;;;;;;-143.84;33.55;44944.34;5088307;28;20869;-60
2023/09/30 09:56:13;;;;;;;1.20;1.03;;;;;;;-143.84;33.97;44988.13;5089576;28;20511;-60
2023/09/30 09:58:42;;;;;;;1.10;0.97;;;;;;;-143.84;33.36;44932.91;5086993;28;20436;-60
2023/09/30 10:01:11;;;;;;;1.30;0.70;;;;;;;-143.84;33.37;44953.88;5089657;28;20443;-60
2023/09/30 10:03:40;;;;;;;1.00;0.90;;;;;;;-143.84;33.16;44976.72;5089592;28;20789;-60
2023/09/30 10:06:08;;;;;;;0.97;0.60;;;;;;;-143.84;33.85;44957.66;5087549;28;20464;-60
2023/09/30 10:08:41;;;;;;;1.30;1.20;;;;;;;-143.84;33.88;44948.16;5089414;28;20565;-60
2023/09/30 10:11:09;;;;;;;1.03;0.80;;;;;;;-143.84;34.56;44967.19;5088926;28;20467;-60
2023/09/30 10:13:55;;;;;;;1.50;1.13;;;;;;;-143.84;33.99;44980.53;5084365;28;20513;-61
2023/09/30 10:16:50;;;;;;;1.57;1.00;;;;;;;-143.84;33.79;44967.19;5088686;28;20440;-61
2023/09/30 10:19:22;;;;;;;1.50;1.00;;;;;;;-143.84;33.54;44959.56;5057101;28;21345;-61
2023/09/30 10:22:23;;;;;;;1.07;0.90;;;;;;;-143.84;34.14;44953.88;5084685;28;20527;-60
2023/09/30 10:24:52;;;;;;;1.03;0.93;;;;;;;-143.84;33.22;44965.28;5078661;28;20559;-60
2023/09/30 10:27:34;;;;;;;0.90;0.50;;;;;;;-143.84;34.57;44931.00;5083684;28;20448;-60
2023/09/30 10:30:13;;;;;;;1.30;1.20;;;;;;;-143.84;35.99;44959.56;5082660;28;20528;-60
2023/09/30 10:33:11;;;;;;;1.40;0.80;;;;;;;-143.84;35.88;44955.75;5083171;28;20483;-60
2023/09/30 10:35:47;;;;;;;1.20;1.10;;;;;;;-143.84;34.60;44955.75;5082495;28;20440;-60
2023/09/30 10:38:41;;;;;;;0.90;0.80;;;;;;;-143.84;34.22;44963.38;5080470;28;20568;-60
2023/09/30 10:41:09;;;;;;;1.00;0.87;;;;;;;-143.84;34.05;44917.69;5084668;28;20455;-60
2023/09/30 10:43:38;;;;;;;0.93;0.70;;;;;;;-143.84;34.28;44965.28;5082515;28;20475;-60
2023/09/30 10:46:34;;;;;;;1.60;0.70;;;;;;;-143.84;35.23;44942.44;5083231;28;20840;-60
2023/09/30 10:49:18;;;;;;;2.40;1.33;;;;;;;-143.84;34.70;44961.47;5082960;28;21194;-60
2023/09/30 10:51:46;;;;;;;1.00;0.70;;;;;;;-143.84;34.65;44957.66;5082842;28;21252;-60
2023/09/30 10:54:14;;;;;;;1.20;0.93;;;;;;;-143.84;34.99;44963.38;5084074;28;20454;-60
2023/09/30 10:56:41;;;;;;;1.47;0.67;;;;;;;-143.84;35.26;44993.84;5086144;28;20451;-61
2023/09/30 10:59:09;;;;;;;1.10;1.00;;;;;;;-143.84;36.45;44982.41;5082955;28;20451;-60
2023/09/30 11:01:38;;;;;;;1.90;1.03;;;;;;;-143.84;39.42;44953.88;5082712;28;20448;-60
2023/09/30 11:04:08;;;;;;;1.40;1.10;;;;;;;-143.84;40.49;44961.47;5083996;28;21438;-60
2023/09/30 11:06:35;;;;;;;1.10;0.90;;;;;;;-143.84;40.46;44965.28;5083598;28;20969;-60
2023/09/30 11:09:03;;;;;;;1.20;1.00;;;;;;;-143.84;40.24;44953.88;5082912;28;20440;-60
2023/09/30 11:11:35;;;;;;;1.87;1.37;;;;;;;-143.84;41.11;44955.75;5081197;28;20474;-59
2023/09/30 11:14:06;;;;;;;2.13;1.93;;;;;;;-143.84;41.26;44944.34;5083135;28;20432;-59
2023/09/30 11:16:44;;;;;;;1.53;1.20;;;;;;;-143.84;42.25;44953.88;5083061;28;20440;-60
2023/09/30 11:19:11;;;;;;;1.23;1.00;;;;;;;-143.84;41.05;44940.53;5081933;28;20479;-60
2023/09/30 11:21:39;;;;;;;2.63;1.50;;;;;;;-143.84;40.66;44965.28;5081822;28;20834;-60
2023/09/30 11:24:07;;;;;;;1.43;1.33;;;;;;;-143.84;41.54;44915.78;5082809;28;20543;-59